createdAt,value
2022-11-22T00:00:27.776Z,5.43
2022-11-22T00:02:54.467Z,4.38
2022-11-22T00:05:21.753Z,4.90
2022-11-22T00:07:48.505Z,5.38
2022-11-22T00:10:15.450Z,4.85
2022-11-22T00:12:42.506Z,4.90
2022-11-22T00:15:10.293Z,5.32
2022-11-22T00:17:37.202Z,4.88
2022-11-22T00:20:05.390Z,4.43
2022-11-22T00:22:32.377Z,5.22
2022-11-22T00:24:59.009Z,4.65
2022-11-22T00:27:26.025Z,4.60
2022-11-22T00:29:52.587Z,4.40
2022-11-22T00:32:19.122Z,4.15
2022-11-22T00:34:45.687Z,4.50
2022-11-22T00:37:12.218Z,3.40
2022-11-22T00:39:38.876Z,4.60
2022-11-22T00:42:05.528Z,4.28
2022-11-22T00:44:32.151Z,3.95
2022-11-22T00:46:58.782Z,4.03
2022-11-22T00:49:25.265Z,2.90
2022-11-22T00:51:51.973Z,3.05
2022-11-22T00:54:18.430Z,3.28
2022-11-22T00:56:44.977Z,3.53
2022-11-22T00:59:11.430Z,3.33
2022-11-22T01:01:39.022Z,3.38
2022-11-22T01:04:05.807Z,3.45
2022-11-22T01:06:33.144Z,3.40
2022-11-22T01:08:59.733Z,3.35
2022-11-22T01:11:26.269Z,3.60
2022-11-22T01:13:52.905Z,3.83
2022-11-22T01:16:19.857Z,4.10
2022-11-22T01:18:46.349Z,4.10
2022-11-22T01:21:13.251Z,3.75
2022-11-22T01:23:39.859Z,3.85
2022-11-22T01:26:08.938Z,3.92
2022-11-22T01:28:36.093Z,4.38
2022-11-22T01:31:02.804Z,4.95
2022-11-22T01:33:29.434Z,4.07
2022-11-22T01:35:58.135Z,3.92
2022-11-22T01:38:26.819Z,3.75
2022-11-22T01:40:53.975Z,4.30
2022-11-22T01:43:25.708Z,3.60
2022-11-22T01:45:54.713Z,4.20
2022-11-22T01:48:30.826Z,3.83
2022-11-22T01:51:05.929Z,3.60
2022-11-22T01:53:36.526Z,4.43
2022-11-22T01:56:06.450Z,4.50
2022-11-22T01:58:36.927Z,4.18
2022-11-22T02:01:03.983Z,4.10
2022-11-22T02:03:33.101Z,4.75
2022-11-22T02:06:00.022Z,4.68
2022-11-22T02:09:02.263Z,5.28
2022-11-22T02:11:33.913Z,5.15
2022-11-22T02:14:01.289Z,4.75
2022-11-22T02:16:28.370Z,5.32
2022-11-22T02:18:54.928Z,5.05
2022-11-22T02:21:21.500Z,5.20
2022-11-22T02:23:58.441Z,4.95
2022-11-22T02:26:32.513Z,4.10
2022-11-22T02:29:10.425Z,4.25
2022-11-22T02:31:45.169Z,5.07
2022-11-22T02:34:29.688Z,4.07
2022-11-22T02:37:30.250Z,4.55
2022-11-22T02:43:04.493Z,3.47
2022-11-22T02:45:31.145Z,3.25
2022-11-22T02:48:18.311Z,3.80
2022-11-22T02:50:45.975Z,3.65
2022-11-22T02:53:13.350Z,4.22
2022-11-22T02:55:41.089Z,3.83
2022-11-22T02:58:08.024Z,3.85
2022-11-22T03:00:37.004Z,3.78
2022-11-22T03:03:14.971Z,3.33
2022-11-22T03:05:49.388Z,3.25
2022-11-22T03:08:25.952Z,2.85
2022-11-22T03:10:52.556Z,3.55
2022-11-22T03:13:19.053Z,3.15
2022-11-22T03:15:48.773Z,4.13
2022-11-22T03:18:15.409Z,2.75
2022-11-22T03:20:41.963Z,2.95
2022-11-22T03:23:08.483Z,2.55
2022-11-22T03:25:38.636Z,3.42
2022-11-22T03:28:05.314Z,2.92
2022-11-22T03:30:32.143Z,3.05
2022-11-22T03:32:58.651Z,3.25
2022-11-22T03:35:25.273Z,2.65
2022-11-22T03:37:51.892Z,3.40
2022-11-22T03:40:21.001Z,3.63
2022-11-22T03:42:47.711Z,3.38
2022-11-22T03:45:14.360Z,3.22
2022-11-22T03:47:40.945Z,3.30
2022-11-22T03:50:07.718Z,3.30
2022-11-22T03:52:34.265Z,3.60
2022-11-22T03:55:00.845Z,2.83
2022-11-22T03:57:27.320Z,3.00
2022-11-22T03:59:53.895Z,3.08
2022-11-22T04:02:20.521Z,3.67
2022-11-22T04:04:47.026Z,2.67
2022-11-22T04:07:13.621Z,3.30
2022-11-22T04:09:40.223Z,2.88
2022-11-22T04:12:06.774Z,3.00
2022-11-22T04:14:51.707Z,3.10
2022-11-22T04:17:38.224Z,2.72
2022-11-22T04:20:23.915Z,2.95
2022-11-22T04:22:58.261Z,2.80
2022-11-22T04:25:29.431Z,3.35
2022-11-22T04:27:57.111Z,2.45
2022-11-22T04:30:43.549Z,2.33
2022-11-22T04:33:10.880Z,3.05
2022-11-22T04:35:38.361Z,2.78
2022-11-22T04:38:05.257Z,3.50
2022-11-22T04:40:32.898Z,2.78
2022-11-22T04:43:18.115Z,3.63
2022-11-22T04:45:45.402Z,2.42
2022-11-22T04:48:12.485Z,2.92
2022-11-22T04:51:00.886Z,3.97
2022-11-22T04:53:28.566Z,2.58
2022-11-22T04:55:55.679Z,2.78
2022-11-22T04:58:23.013Z,2.60
2022-11-22T05:00:50.113Z,3.53
2022-11-22T05:03:17.656Z,2.92
2022-11-22T05:05:45.459Z,3.55
2022-11-22T05:08:13.171Z,2.03
2022-11-22T05:10:57.968Z,3.50
2022-11-22T05:13:30.970Z,3.25
2022-11-22T05:15:58.387Z,2.80
2022-11-22T05:18:25.776Z,2.65
2022-11-22T05:20:52.994Z,3.85
2022-11-22T05:23:39.012Z,2.88
2022-11-22T05:26:06.655Z,2.85
2022-11-22T05:28:35.717Z,2.35
2022-11-22T05:31:17.529Z,2.53
2022-11-22T05:33:45.708Z,2.83
2022-11-22T05:36:12.957Z,3.70
2022-11-22T05:38:39.641Z,3.28
2022-11-22T05:41:08.297Z,4.00
2022-11-22T05:43:35.236Z,3.20
2022-11-22T05:46:10.750Z,3.85
2022-11-22T05:48:38.706Z,2.72
2022-11-22T05:51:11.563Z,3.10
2022-11-22T05:53:39.188Z,4.28
2022-11-22T05:56:19.381Z,3.50
2022-11-22T05:58:46.432Z,2.65
2022-11-22T06:01:15.819Z,2.78
2022-11-22T06:03:42.833Z,2.70
2022-11-22T06:06:10.071Z,3.13
2022-11-22T06:08:38.628Z,4.45
2022-11-22T06:11:12.842Z,3.22
2022-11-22T06:13:41.910Z,2.70
2022-11-22T06:16:10.322Z,3.25
2022-11-22T06:18:36.999Z,2.83
2022-11-22T06:21:07.166Z,2.30
2022-11-22T06:23:34.081Z,3.00
2022-11-22T06:26:03.112Z,2.22
2022-11-22T06:28:31.009Z,2.50
2022-11-22T06:31:02.738Z,2.70
2022-11-22T06:33:29.343Z,3.00
2022-11-22T06:36:08.565Z,3.28
2022-11-22T06:38:35.360Z,4.20
2022-11-22T06:41:03.519Z,3.83
2022-11-22T06:43:31.384Z,3.50
2022-11-22T06:45:59.075Z,3.08
2022-11-22T06:48:30.351Z,2.65
2022-11-22T06:51:03.123Z,3.00
2022-11-22T06:53:46.818Z,2.60
2022-11-22T06:56:17.255Z,3.67
2022-11-22T06:58:44.894Z,3.05
2022-11-22T07:01:14.892Z,3.15
2022-11-22T07:03:42.402Z,2.60
2022-11-22T07:06:12.001Z,2.72
2022-11-22T07:08:39.316Z,2.22
2022-11-22T07:11:11.996Z,2.80
2022-11-22T07:13:39.180Z,2.60
2022-11-22T07:16:08.696Z,2.88
2022-11-22T07:18:35.387Z,2.80
2022-11-22T07:21:12.897Z,2.92
2022-11-22T07:23:42.373Z,3.22
2022-11-22T07:26:09.105Z,3.92
2022-11-22T07:28:35.729Z,2.58
2022-11-22T07:31:04.366Z,4.35
2022-11-22T07:33:30.925Z,3.38
2022-11-22T07:36:05.572Z,3.45
2022-11-22T07:38:32.758Z,2.70
2022-11-22T07:41:00.996Z,3.30
2022-11-22T07:43:27.903Z,3.00
2022-11-22T07:45:58.516Z,3.80
2022-11-22T07:48:25.228Z,3.63
2022-11-22T07:50:51.803Z,2.60
2022-11-22T07:53:18.414Z,3.30
2022-11-22T07:55:44.957Z,3.17
2022-11-22T07:58:11.542Z,2.97
2022-11-22T08:00:38.176Z,2.38
2022-11-22T08:03:06.698Z,2.63
2022-11-22T08:05:33.306Z,2.85
2022-11-22T08:07:59.790Z,2.53
2022-11-22T08:10:26.445Z,3.90
2022-11-22T08:12:52.926Z,4.38
2022-11-22T08:15:19.585Z,3.45
2022-11-22T08:17:46.145Z,2.65
2022-11-22T08:20:13.206Z,2.95
2022-11-22T08:22:40.930Z,2.50
2022-11-22T08:25:12.457Z,2.60
2022-11-22T08:27:43.253Z,3.25
2022-11-22T08:30:11.380Z,2.85
2022-11-22T08:32:38.344Z,2.78
2022-11-22T08:35:05.308Z,3.45
2022-11-22T08:37:31.904Z,2.72
2022-11-22T08:39:58.471Z,3.72
2022-11-22T08:42:24.998Z,2.47
2022-11-22T08:44:51.628Z,2.42
2022-11-22T08:47:18.258Z,2.30
2022-11-22T08:49:44.883Z,2.38
2022-11-22T08:52:11.561Z,2.05
2022-11-22T08:54:38.414Z,2.80
2022-11-22T08:57:05.466Z,2.88
2022-11-22T08:59:32.980Z,2.20
2022-11-22T09:02:00.017Z,2.50
2022-11-22T09:04:26.580Z,2.67
2022-11-22T09:09:39.629Z,2.38
2022-11-22T09:12:06.648Z,2.30
2022-11-22T09:14:33.201Z,2.13
2022-11-22T09:16:59.980Z,2.45
2022-11-22T09:19:26.550Z,2.22
2022-11-22T09:21:53.113Z,2.35
2022-11-22T09:24:19.712Z,3.30
2022-11-22T09:26:46.298Z,2.65
2022-11-22T09:29:12.919Z,1.95
2022-11-22T09:31:39.483Z,2.40
2022-11-22T09:34:07.047Z,2.35
2022-11-22T09:36:33.530Z,3.30
2022-11-22T09:39:01.013Z,2.00
2022-11-22T09:41:51.265Z,2.22
2022-11-22T09:44:38.333Z,2.55
2022-11-22T09:47:29.889Z,2.17
2022-11-22T09:50:15.005Z,2.60
2022-11-22T09:52:52.665Z,1.98
2022-11-22T09:55:29.141Z,2.10
2022-11-22T09:58:31.749Z,2.20
2022-11-22T10:01:06.519Z,2.33
2022-11-22T10:03:57.557Z,2.28
2022-11-22T10:06:32.673Z,1.95
2022-11-22T10:09:25.295Z,1.42
2022-11-22T10:12:01.127Z,1.90
2022-11-22T10:15:08.363Z,2.00
2022-11-22T10:17:55.125Z,1.67
2022-11-22T10:20:29.086Z,1.80
2022-11-22T10:22:59.632Z,1.70
2022-11-22T10:25:35.131Z,1.70
2022-11-22T10:28:17.084Z,1.70
2022-11-22T10:30:56.315Z,1.90
2022-11-22T10:33:29.407Z,1.85
2022-11-22T10:35:58.867Z,1.60
2022-11-22T10:38:36.212Z,1.30
2022-11-22T10:41:25.065Z,1.83
2022-11-22T10:44:06.990Z,2.55
2022-11-22T10:47:06.305Z,1.20
2022-11-22T10:50:13.190Z,1.58
2022-11-22T10:52:55.034Z,1.23
2022-11-22T10:55:48.837Z,1.35
2022-11-22T10:58:35.181Z,1.23
2022-11-22T11:01:17.647Z,1.63
2022-11-22T11:03:47.883Z,1.35
2022-11-22T11:06:43.582Z,1.40
2022-11-22T11:12:34.118Z,1.60
2022-11-22T11:15:05.407Z,1.40
2022-11-22T11:17:35.466Z,1.70
2022-11-22T11:20:11.296Z,1.90
2022-11-22T11:25:34.255Z,1.23
2022-11-22T11:28:19.745Z,1.05
2022-11-22T11:30:51.452Z,1.05
2022-11-22T11:33:27.285Z,1.50
2022-11-22T11:36:18.688Z,0.98
2022-11-22T11:38:45.129Z,1.00
2022-11-22T11:41:31.051Z,1.00
2022-11-22T11:43:59.842Z,0.95
2022-11-22T11:46:43.430Z,1.08
2022-11-22T11:49:25.158Z,1.20
2022-11-22T11:51:55.591Z,1.48
2022-11-22T11:54:22.012Z,1.13
2022-11-22T11:56:51.687Z,1.20
2022-11-22T11:59:21.135Z,0.90
2022-11-22T12:01:53.409Z,1.15
2022-11-22T12:04:25.732Z,1.55
2022-11-22T12:07:03.174Z,0.95
2022-11-22T12:09:37.031Z,1.08
2022-11-22T12:12:12.715Z,1.10
2022-11-22T12:15:09.656Z,0.75
2022-11-22T12:17:36.844Z,1.00
2022-11-22T12:20:11.492Z,0.90
2022-11-22T12:22:52.752Z,0.82
2022-11-22T12:25:38.891Z,0.82
2022-11-22T12:28:17.079Z,0.50
2022-11-22T12:30:53.005Z,0.73
2022-11-22T12:33:27.420Z,0.50
2022-11-22T12:35:56.543Z,0.40
2022-11-22T12:38:38.501Z,0.68
2022-11-22T12:41:09.789Z,0.60
2022-11-22T12:43:44.077Z,0.55
2022-11-22T12:46:19.769Z,0.60
2022-11-22T12:48:53.488Z,0.45
2022-11-22T12:51:25.997Z,0.50
2022-11-22T12:56:55.893Z,0.50
2022-11-22T12:59:43.927Z,0.40
2022-11-22T13:02:30.916Z,0.40
2022-11-22T13:05:05.443Z,0.40
2022-11-22T13:07:45.758Z,0.52
2022-11-22T13:10:37.376Z,0.32
2022-11-22T13:13:05.994Z,0.50
2022-11-22T13:15:36.480Z,0.75
2022-11-22T13:18:09.423Z,0.50
2022-11-22T13:20:43.396Z,0.40
2022-11-22T13:23:21.105Z,0.70
2022-11-22T13:26:08.112Z,0.80
2022-11-22T13:28:40.019Z,0.60
2022-11-22T13:31:18.496Z,0.95
2022-11-22T13:33:54.505Z,0.50
2022-11-22T13:36:27.006Z,0.60
2022-11-22T13:38:59.299Z,0.43
2022-11-22T13:41:36.930Z,0.40
2022-11-22T13:44:39.140Z,0.60
2022-11-22T13:47:17.525Z,0.40
2022-11-22T13:49:49.012Z,0.50
2022-11-22T13:52:15.707Z,0.40
2022-11-22T13:54:48.191Z,0.57
2022-11-22T14:00:14.223Z,0.50
2022-11-22T14:03:08.720Z,0.60
2022-11-22T14:05:41.615Z,0.50
2022-11-22T14:08:29.612Z,0.65
2022-11-22T14:10:56.055Z,0.73
2022-11-22T14:13:22.474Z,0.70
2022-11-22T14:16:10.480Z,0.70
2022-11-22T14:19:01.911Z,0.52
2022-11-22T14:21:49.554Z,0.68
2022-11-22T14:24:33.698Z,0.50
2022-11-22T14:27:09.642Z,0.60
2022-11-22T14:29:55.122Z,0.57
2022-11-22T14:32:23.878Z,0.70
2022-11-22T14:35:05.322Z,0.63
2022-11-22T14:37:31.922Z,0.75
2022-11-22T14:40:02.818Z,0.88
2022-11-22T14:42:35.276Z,0.95
2022-11-22T14:45:10.864Z,1.55
2022-11-22T14:47:45.477Z,1.80
2022-11-22T14:50:42.787Z,1.33
2022-11-22T14:53:21.314Z,1.80
2022-11-22T14:55:50.210Z,2.35
2022-11-22T14:58:25.678Z,1.98
2022-11-22T15:01:01.240Z,1.60
2022-11-22T15:09:11.240Z,2.20
2022-11-22T15:09:16.477Z,2.95
2022-11-22T15:10:19.478Z,1.70
2022-11-22T15:13:17.021Z,0.95
2022-11-22T15:59:34.480Z,0.50
2022-11-22T16:02:01.615Z,0.38
2022-11-22T16:04:36.071Z,0.50
2022-11-22T16:07:07.020Z,0.47
2022-11-22T16:09:36.016Z,0.30
2022-11-22T16:12:05.484Z,0.30
2022-11-22T16:14:46.918Z,0.43
2022-11-22T16:17:35.834Z,0.57
2022-11-22T16:20:25.934Z,0.40
2022-11-22T16:23:04.662Z,0.65
2022-11-22T16:25:33.865Z,3.60
2022-11-22T16:28:06.072Z,1.65
2022-11-22T16:30:45.340Z,3.80
2022-11-22T16:33:12.167Z,1.63
2022-11-22T16:35:39.565Z,1.80
2022-11-22T16:38:09.794Z,3.05
2022-11-22T16:40:42.385Z,3.63
2022-11-22T16:45:55.663Z,2.75
2022-11-22T16:48:32.945Z,2.08
2022-11-22T16:51:06.040Z,2.90
2022-11-22T16:56:07.876Z,3.08
2022-11-22T16:58:34.467Z,3.13
2022-11-22T17:01:01.195Z,2.45
2022-11-22T17:03:33.571Z,1.83
2022-11-22T17:06:00.207Z,2.10
2022-11-22T17:08:26.672Z,2.05
2022-11-22T17:10:53.257Z,2.40
2022-11-22T17:13:25.622Z,2.00
2022-11-22T17:15:53.549Z,2.55
2022-11-22T17:18:20.716Z,2.67
2022-11-22T17:20:47.923Z,2.90
2022-11-22T17:23:27.295Z,2.70
2022-11-22T17:25:53.854Z,2.70
2022-11-22T17:28:20.375Z,2.53
2022-11-22T17:30:47.935Z,2.70
2022-11-22T17:33:14.436Z,2.95
2022-11-22T17:35:41.235Z,2.95
2022-11-22T17:38:11.432Z,2.90
2022-11-22T17:40:38.347Z,3.13
2022-11-22T17:43:04.907Z,3.35
2022-11-22T17:45:31.479Z,3.15
2022-11-22T17:47:58.003Z,3.90
2022-11-22T17:50:24.541Z,4.00
2022-11-22T17:52:51.999Z,4.47
2022-11-22T17:55:18.482Z,4.50
2022-11-22T17:57:44.996Z,4.95
2022-11-22T18:00:12.106Z,4.20
2022-11-22T18:02:38.661Z,4.93
2022-11-22T18:05:08.333Z,5.10
2022-11-22T18:07:35.966Z,5.53
2022-11-22T18:10:02.709Z,4.35
2022-11-22T18:12:29.200Z,3.10
2022-11-22T18:14:55.848Z,2.88
2022-11-22T18:17:22.896Z,2.72
2022-11-22T18:19:49.516Z,2.55
2022-11-22T18:22:16.021Z,2.65
2022-11-22T18:24:42.632Z,2.40
2022-11-22T18:27:09.233Z,2.22
2022-11-22T18:29:42.674Z,2.08
2022-11-22T18:32:09.677Z,3.25
2022-11-22T18:34:36.399Z,3.30
2022-11-22T18:37:04.551Z,5.05
2022-11-22T18:39:34.785Z,6.43
2022-11-22T18:42:02.265Z,3.70
2022-11-22T18:44:28.801Z,2.95
2022-11-22T18:46:55.300Z,2.78
2022-11-22T18:49:22.211Z,2.83
2022-11-22T18:51:48.774Z,3.10
2022-11-22T18:54:15.999Z,4.40
2022-11-22T18:56:42.550Z,3.95
2022-11-22T18:59:12.712Z,3.72
2022-11-22T19:01:40.807Z,3.25
2022-11-22T19:04:07.805Z,2.83
2022-11-22T19:06:34.332Z,3.40
2022-11-22T19:09:01.495Z,3.10
2022-11-22T19:11:30.506Z,2.30
2022-11-22T19:13:56.996Z,2.80
2022-11-22T19:16:24.323Z,3.83
2022-11-22T19:18:51.561Z,3.47
2022-11-22T19:21:20.819Z,2.85
2022-11-22T19:23:47.828Z,3.55
2022-11-22T19:26:17.043Z,3.70
2022-11-22T19:28:43.557Z,5.40
2022-11-22T19:31:17.661Z,4.80
2022-11-22T19:33:44.903Z,5.15
2022-11-22T19:36:20.691Z,4.35
2022-11-22T19:38:47.841Z,6.28
2022-11-22T19:41:17.465Z,6.35
2022-11-22T19:43:44.664Z,4.53
2022-11-22T19:46:11.770Z,3.70
2022-11-22T19:48:43.725Z,5.82
2022-11-22T19:51:15.273Z,4.70
2022-11-22T19:53:42.358Z,5.70
2022-11-22T19:56:17.210Z,4.65
2022-11-22T19:58:49.035Z,5.57
2022-11-22T20:01:16.563Z,5.47
2022-11-22T20:03:44.411Z,4.78
2022-11-22T20:06:13.136Z,5.78
2022-11-22T20:08:40.139Z,5.05
2022-11-22T20:11:18.648Z,5.47
2022-11-22T20:13:47.483Z,4.97
2022-11-22T20:16:15.091Z,4.50
2022-11-22T20:18:41.724Z,5.03
2022-11-22T20:21:10.192Z,4.75
2022-11-22T20:23:37.169Z,4.22
2022-11-22T20:26:12.512Z,4.32
2022-11-22T20:28:40.273Z,3.80
2022-11-22T20:31:07.255Z,5.53
2022-11-22T20:33:35.316Z,6.85
2022-11-22T20:36:06.324Z,6.30
2022-11-22T20:38:42.800Z,5.75
2022-11-22T20:41:11.553Z,3.67
2022-11-22T20:43:38.645Z,3.90
2022-11-22T20:46:07.880Z,3.88
2022-11-22T20:48:35.296Z,3.65
2022-11-22T20:51:05.279Z,3.30
2022-11-22T20:53:32.519Z,3.92
2022-11-22T20:55:59.357Z,3.75
2022-11-22T20:58:26.735Z,3.50
2022-11-22T21:00:55.729Z,4.32
2022-11-22T21:03:23.051Z,3.70
2022-11-22T21:05:55.025Z,3.78
2022-11-22T21:08:22.495Z,3.33
2022-11-22T21:10:49.288Z,3.72
2022-11-22T21:13:16.013Z,4.70
2022-11-22T21:15:42.618Z,4.88
2022-11-22T21:18:27.604Z,5.80
2022-11-22T21:21:12.903Z,4.53
2022-11-22T21:23:40.969Z,4.88
2022-11-22T21:26:08.057Z,4.95
2022-11-22T21:28:38.946Z,4.50
2022-11-22T21:31:05.796Z,5.43
2022-11-22T21:33:34.283Z,4.00
2022-11-22T21:36:01.753Z,3.95
2022-11-22T21:38:31.282Z,3.75
2022-11-22T21:41:17.265Z,3.92
2022-11-22T21:43:50.406Z,3.25
2022-11-22T21:46:18.287Z,3.50
2022-11-22T21:48:44.800Z,3.95
2022-11-22T21:51:11.373Z,2.95
2022-11-22T21:53:37.891Z,3.70
2022-11-22T21:56:04.496Z,3.42
2022-11-22T21:58:31.184Z,3.28
2022-11-22T22:01:01.548Z,3.20
2022-11-22T22:03:29.720Z,3.35
2022-11-22T22:05:57.544Z,3.78
2022-11-22T22:08:26.381Z,2.72
2022-11-22T22:10:52.988Z,3.65
2022-11-22T22:13:19.651Z,3.42
2022-11-22T22:15:47.423Z,4.40
2022-11-22T22:18:14.546Z,2.80
2022-11-22T22:20:42.064Z,3.75
2022-11-22T22:23:09.704Z,4.13
2022-11-22T22:25:39.509Z,3.22
2022-11-22T22:28:06.057Z,3.08
2022-11-22T22:30:32.574Z,3.45
2022-11-22T22:32:59.120Z,3.45
2022-11-22T22:35:25.639Z,2.63
2022-11-22T22:37:52.494Z,3.28
2022-11-22T22:40:19.586Z,2.85
2022-11-22T22:42:46.051Z,3.58
2022-11-22T22:45:12.684Z,3.53
2022-11-22T22:47:39.239Z,3.25
2022-11-22T22:50:06.234Z,2.53
2022-11-22T22:52:33.936Z,2.83
2022-11-22T22:55:00.540Z,2.95
2022-11-22T22:57:27.064Z,3.17
2022-11-22T22:59:53.536Z,2.80
2022-11-22T23:02:20.232Z,2.78
2022-11-22T23:04:46.778Z,2.85
2022-11-22T23:07:13.307Z,3.78
2022-11-22T23:09:39.908Z,3.00
2022-11-22T23:12:12.359Z,3.20
2022-11-22T23:14:40.009Z,3.33
2022-11-22T23:17:08.985Z,3.40
2022-11-22T23:19:35.909Z,3.20
2022-11-22T23:22:02.996Z,3.15
2022-11-22T23:24:31.027Z,2.90
2022-11-22T23:26:57.932Z,3.53
2022-11-22T23:29:24.510Z,3.05
2022-11-22T23:31:51.116Z,3.17
2022-11-22T23:34:17.625Z,3.40
2022-11-22T23:36:44.352Z,3.88
2022-11-22T23:39:11.523Z,3.50
2022-11-22T23:41:38.147Z,3.85
2022-11-22T23:44:04.785Z,4.28
2022-11-22T23:46:31.414Z,3.60
2022-11-22T23:48:59.952Z,3.55
2022-11-22T23:51:28.235Z,4.75
2022-11-22T23:53:55.955Z,4.00
2022-11-22T23:56:23.432Z,3.90
2022-11-22T23:58:50.595Z,4.35
